EDT,Max TemperatureF,Mean TemperatureF,Min TemperatureF,Max Dew PointF,MeanDew PointF,Min DewpointF,Max Humidity, Mean Humidity, Min Humidity, Max Sea Level PressureIn, Mean Sea Level PressureIn, Min Sea Level PressureIn, Max VisibilityMiles, Mean VisibilityMiles, Min VisibilityMiles, Max Wind SpeedMPH, Mean Wind SpeedMPH, Max Gust SpeedMPH,PrecipitationIn, CloudCover, Events, WindDirDegrees
2012-3-1,42,38,33,40,37,30,100,93,87,29.91,29.75,29.66,9,3,1,23,18,32,0.59,8,Rain-Snow,67
2012-3-2,37,35,33,30,28,25,89,75,64,30.15,30.08,29.94,10,10,8,10,7,22,0.00,7,Snow,54
2012-3-3,48,42,37,49,41,30,100,93,70,29.99,29.60,29.40,10,5,0,15,11,29,0.11,7,Fog-Rain,192
2012-3-4,42,36,30,36,31,24,93,77,57,29.72,29.63,29.55,10,10,7,9,3,,0.03,5,Rain,224
2012-3-5,41,36,30,23,16,9,69,49,27,30.26,29.96,29.67,10,10,10,15,6,30,0.00,2,,268
2012-3-6,35,30,24,21,13,6,69,53,30,30.62,30.51,30.28,10,10,10,14,7,24,0.00,2,,318
2012-3-7,48,39,30,42,36,22,90,79,70,30.62,30.48,30.35,10,9,7,17,8,30,0.00,0,,218
2012-3-8,53,50,46,46,44,42,90,82,71,30.34,30.16,29.89,10,9,7,18,14,36,0.00,1,,225
2012-3-9,51,42,33,47,32,21,87,69,42,30.14,30.00,29.79,10,9,3,18,12,33,0.08,6,Rain,275
2012-3-10,39,32,25,31,26,18,96,76,56,30.56,30.34,30.15,10,6,0,16,8,29,0.18,5,Fog-Snow,338
2012-3-11,46,36,25,39,32,20,86,73,59,30.55,30.42,30.30,10,10,10,20,8,30,0.00,0,,225
2012-3-12,57,48,39,43,39,36,89,76,51,30.30,30.24,30.17,10,10,9,13,8,22,0.00,0,,226
2012-3-13,50,46,44,46,44,42,100,92,86,30.16,30.05,29.96,10,5,0,14,8,24,0.00,7,Fog-Rain,223
2012-3-14,48,45,42,48,43,39,100,92,77,30.25,30.06,29.97,10,5,0,13,6,22,0.00,8,Fog,337
2012-3-15,43,40,37,39,33,30,93,77,67,30.38,30.34,30.25,10,10,8,13,6,18,0.00,7,,36
2012-3-16,43,38,35,41,36,30,100,85,75,30.35,30.22,30.13,10,8,0,6,3,,0.08,8,Fog-Rain,116
2012-3-17,51,44,36,41,38,33,100,82,58,30.39,30.30,30.17,10,8,2,12,3,16,0.00,5,,38
2012-3-18,51,44,37,43,41,36,100,90,77,30.38,30.28,30.18,10,7,0,15,8,26,0.00,3,Fog,225
2012-3-19,64,52,42,50,45,42,100,89,60,30.27,30.20,30.16,10,7,1,10,8,20,0.00,2,,231
2012-3-20,61,50,42,51,46,40,100,89,72,30.34,30.31,30.27,10,6,0,12,3,18,0.00,3,Fog,225
2012-3-21,66,55,46,56,51,46,100,93,70,30.37,30.32,30.29,10,4,0,12,6,17,0.01,5,Fog,230
2012-3-22,59,52,48,55,52,48,100,94,84,30.27,30.16,30.01,10,4,0,15,9,26,0.00,5,Fog,237
2012-3-23,66,57,50,54,44,31,96,63,28,30.13,30.05,30.00,10,10,6,8,4,,0.01,2,,349
2012-3-24,55,50,44,38,34,28,73,61,34,30.19,30.12,30.07,10,10,10,12,6,,0.00,4,,88
2012-3-25,46,44,42,45,41,35,100,91,73,30.07,29.84,29.69,10,6,2,12,6,16,0.08,8,Rain,68
2012-3-26,51,42,33,45,32,14,100,70,40,29.93,29.71,29.63,10,10,9,18,7,34,0.01,7,,326
2012-3-27,42,36,30,19,12,7,59,39,25,30.18,30.08,29.94,10,10,10,16,11,32,0.00,2,,330
2012-3-28,48,39,30,45,35,17,93,75,44,30.14,29.80,29.57,10,9,5,14,4,26,0.10,6,Rain,209
2012-3-29,46,42,39,45,39,28,100,85,63,29.90,29.67,29.51,10,8,4,13,5,24,0.03,8,Rain,330
2012-3-30,46,40,34,29,23,12,68,50,26,30.06,29.99,29.91,10,10,10,12,7,26,0.00,2,,328
2012-3-31,42,37,32,36,33,29,93,84,62,30.06,29.96,29.89,10,9,3,9,5,17,0.17,6,Rain,109